createdAt,value
2022-11-16T00:01:49.898Z,100.00
2022-11-16T00:03:48.446Z,100.00
2022-11-16T00:05:46.775Z,100.00
2022-11-16T00:07:47.873Z,100.00
2022-11-16T00:09:45.897Z,100.00
2022-11-16T00:11:45.677Z,100.00
2022-11-16T00:13:45.045Z,100.00
2022-11-16T00:15:43.115Z,100.00
2022-11-16T00:17:43.473Z,100.00
2022-11-16T00:19:41.719Z,100.00
2022-11-16T00:21:40.188Z,100.00
2022-11-16T00:23:39.554Z,100.00
2022-11-16T00:25:37.905Z,100.00
2022-11-16T00:27:37.374Z,100.00
2022-11-16T00:29:35.542Z,100.00
2022-11-16T00:31:34.068Z,100.00
2022-11-16T00:33:32.506Z,100.00
2022-11-16T00:35:30.763Z,100.00
2022-11-16T00:37:28.962Z,100.00
2022-11-16T00:39:27.177Z,100.00
2022-11-16T00:41:25.653Z,100.00
2022-11-16T00:43:25.682Z,100.00
2022-11-16T00:45:23.880Z,100.00
2022-11-16T00:47:22.668Z,100.00
2022-11-16T00:49:23.226Z,100.00
2022-11-16T00:51:21.604Z,100.00
2022-11-16T00:53:21.644Z,100.00
2022-11-16T00:55:20.064Z,100.00
2022-11-16T00:57:18.406Z,100.00
2022-11-16T00:59:18.590Z,100.00
2022-11-16T01:01:17.121Z,100.00
2022-11-16T01:03:15.452Z,100.00
2022-11-16T01:05:14.219Z,100.00
2022-11-16T01:07:12.552Z,100.00
2022-11-16T01:09:12.198Z,100.00
2022-11-16T01:11:29.229Z,100.00
2022-11-16T01:13:29.958Z,100.00
2022-11-16T01:15:30.441Z,100.00
2022-11-16T01:17:28.558Z,100.00
2022-11-16T01:19:26.778Z,100.00
2022-11-16T01:21:25.882Z,100.00
2022-11-16T01:23:24.039Z,100.00
2022-11-16T01:25:22.933Z,100.00
2022-11-16T01:27:21.232Z,100.00
2022-11-16T01:29:19.705Z,100.00
2022-11-16T01:31:26.714Z,100.00
2022-11-16T01:33:25.901Z,100.00
2022-11-16T01:35:24.211Z,100.00
2022-11-16T01:37:22.344Z,100.00
2022-11-16T01:39:21.208Z,100.00
2022-11-16T01:41:26.556Z,100.00
2022-11-16T01:43:28.399Z,100.00
2022-11-16T01:45:38.824Z,100.00
2022-11-16T01:47:40.603Z,100.00
2022-11-16T01:49:42.126Z,100.00
2022-11-16T01:51:46.705Z,100.00
2022-11-16T01:53:46.453Z,100.00
2022-11-16T01:55:47.919Z,100.00
2022-11-16T01:58:19.414Z,100.00
2022-11-16T02:00:21.139Z,100.00
2022-11-16T02:02:29.430Z,100.00
2022-11-16T02:04:29.155Z,100.00
2022-11-16T02:06:39.173Z,100.00
2022-11-16T02:09:11.662Z,100.00
2022-11-16T02:11:36.630Z,100.00
2022-11-16T02:13:44.721Z,100.00
2022-11-16T02:15:49.039Z,100.00
2022-11-16T02:18:14.801Z,100.00
2022-11-16T02:20:35.999Z,100.00
2022-11-16T02:22:48.360Z,100.00
2022-11-16T02:24:55.043Z,100.00
2022-11-16T02:27:17.542Z,100.00
2022-11-16T02:29:25.792Z,100.00
2022-11-16T02:31:28.622Z,100.00
2022-11-16T02:33:36.530Z,100.00
2022-11-16T02:35:41.593Z,100.00
2022-11-16T02:37:49.783Z,100.00
2022-11-16T02:39:53.522Z,100.00
2022-11-16T02:41:54.914Z,100.00
2022-11-16T02:44:01.272Z,100.00
2022-11-16T02:46:06.491Z,100.00
2022-11-16T02:48:09.740Z,100.00
2022-11-16T02:50:12.156Z,100.00
2022-11-16T02:52:13.012Z,100.00
2022-11-16T02:54:13.130Z,100.00
2022-11-16T02:56:15.694Z,100.00
2022-11-16T02:58:19.109Z,100.00
2022-11-16T03:00:21.394Z,100.00
2022-11-16T03:02:26.939Z,100.00
2022-11-16T03:04:30.848Z,100.00
2022-11-16T03:06:32.612Z,100.00
2022-11-16T03:08:33.123Z,100.00
2022-11-16T03:10:56.099Z,100.00
2022-11-16T03:12:54.936Z,100.00
2022-11-16T03:14:56.581Z,100.00
2022-11-16T03:16:58.536Z,100.00
2022-11-16T03:19:00.786Z,100.00
2022-11-16T03:21:08.276Z,100.00
2022-11-16T03:23:11.391Z,100.00
2022-11-16T03:25:15.164Z,100.00
2022-11-16T03:27:28.152Z,100.00
2022-11-16T03:29:32.718Z,100.00
2022-11-16T03:31:46.355Z,100.00
2022-11-16T03:33:51.454Z,100.00
2022-11-16T03:35:56.644Z,100.00
2022-11-16T03:37:59.279Z,100.00
2022-11-16T03:40:01.172Z,100.00
2022-11-16T03:42:05.401Z,100.00
2022-11-16T03:44:06.011Z,100.00
2022-11-16T03:46:04.942Z,100.00
2022-11-16T03:48:04.292Z,100.00
2022-11-16T03:50:02.518Z,100.00
2022-11-16T03:52:02.432Z,100.00
2022-11-16T03:54:01.859Z,100.00
2022-11-16T03:56:00.048Z,100.00
2022-11-16T03:57:59.420Z,100.00
2022-11-16T03:59:57.712Z,100.00
2022-11-16T04:01:56.143Z,100.00
2022-11-16T04:03:54.357Z,100.00
2022-11-16T04:06:10.108Z,100.00
2022-11-16T04:08:33.033Z,100.00
2022-11-16T04:10:49.211Z,100.00
2022-11-16T04:13:04.830Z,100.00
2022-11-16T04:15:22.073Z,100.00
2022-11-16T04:17:41.880Z,100.00
2022-11-16T04:19:59.398Z,100.00
2022-11-16T04:22:20.974Z,100.00
2022-11-16T04:24:23.844Z,100.00
2022-11-16T04:26:43.005Z,100.00
2022-11-16T04:28:41.347Z,100.00
2022-11-16T04:30:53.891Z,100.00
2022-11-16T04:33:09.888Z,100.00
2022-11-16T04:35:27.007Z,100.00
2022-11-16T04:37:42.723Z,100.00
2022-11-16T04:39:42.867Z,100.00
2022-11-16T04:41:58.652Z,100.00
2022-11-16T04:43:59.972Z,100.00
2022-11-16T04:46:16.253Z,100.00
2022-11-16T04:48:16.140Z,100.00
2022-11-16T04:50:14.529Z,100.00
2022-11-16T04:52:13.661Z,100.00
2022-11-16T04:54:12.839Z,100.00
2022-11-16T04:56:16.413Z,100.00
2022-11-16T04:58:14.912Z,100.00
2022-11-16T05:00:15.341Z,100.00
2022-11-16T05:02:15.198Z,100.00
2022-11-16T05:04:19.077Z,100.00
2022-11-16T05:06:17.317Z,100.00
2022-11-16T05:08:15.990Z,100.00
2022-11-16T05:10:16.575Z,100.00
2022-11-16T05:12:19.185Z,100.00
2022-11-16T05:14:19.365Z,100.00
2022-11-16T05:16:17.740Z,100.00
2022-11-16T05:18:15.959Z,100.00
2022-11-16T05:20:32.051Z,100.00
2022-11-16T05:22:35.311Z,100.00
2022-11-16T05:24:36.190Z,100.00
2022-11-16T05:26:35.972Z,100.00
2022-11-16T05:28:35.756Z,100.00
2022-11-16T05:30:34.365Z,100.00
2022-11-16T05:32:34.614Z,100.00
2022-11-16T05:34:32.964Z,100.00
2022-11-16T05:36:31.541Z,100.00
2022-11-16T05:38:29.976Z,100.00
2022-11-16T05:40:32.957Z,100.00
2022-11-16T05:42:32.300Z,100.00
2022-11-16T05:44:32.164Z,100.00
2022-11-16T05:46:30.453Z,100.00
2022-11-16T05:48:31.181Z,100.00
2022-11-16T05:50:29.730Z,100.00
2022-11-16T05:52:37.179Z,100.00
2022-11-16T05:54:39.236Z,100.00
2022-11-16T05:56:37.756Z,100.00
2022-11-16T05:58:36.553Z,100.00
2022-11-16T06:00:36.515Z,100.00
2022-11-16T06:02:35.095Z,100.00
2022-11-16T06:04:34.641Z,100.00
2022-11-16T06:06:33.140Z,100.00
2022-11-16T06:08:32.557Z,100.00
2022-11-16T06:10:34.268Z,100.00
2022-11-16T06:12:32.493Z,100.00
2022-11-16T06:14:30.773Z,100.00
2022-11-16T06:16:31.284Z,100.00
2022-11-16T06:18:30.213Z,100.00
2022-11-16T06:20:29.208Z,100.00
2022-11-16T06:22:27.872Z,100.00
2022-11-16T06:24:26.052Z,100.00
2022-11-16T06:26:24.446Z,100.00
2022-11-16T06:28:22.975Z,100.00
2022-11-16T06:30:21.568Z,100.00
2022-11-16T06:32:21.065Z,100.00
2022-11-16T06:34:19.508Z,100.00
2022-11-16T06:36:18.005Z,100.00
2022-11-16T06:38:18.724Z,100.00
2022-11-16T06:40:19.000Z,100.00
2022-11-16T06:42:17.289Z,100.00
2022-11-16T06:44:15.517Z,100.00
2022-11-16T06:46:24.707Z,100.00
2022-11-16T06:48:25.584Z,100.00
2022-11-16T06:50:23.788Z,100.00
2022-11-16T06:52:22.143Z,100.00
2022-11-16T06:54:21.537Z,100.00
2022-11-16T06:56:21.285Z,100.00
2022-11-16T06:58:29.713Z,100.00
2022-11-16T07:00:28.685Z,100.00
2022-11-16T07:02:27.868Z,100.00
2022-11-16T07:04:27.485Z,100.00
2022-11-16T07:06:29.324Z,100.00
2022-11-16T07:08:29.424Z,100.00
2022-11-16T07:10:27.810Z,100.00
2022-11-16T07:12:26.814Z,100.00
2022-11-16T07:14:27.481Z,100.00
2022-11-16T07:16:25.920Z,100.00
2022-11-16T07:18:28.712Z,100.00
2022-11-16T07:20:28.624Z,100.00
2022-11-16T07:22:27.210Z,100.00
2022-11-16T07:24:25.555Z,100.00
2022-11-16T07:26:24.110Z,100.00
2022-11-16T07:28:29.263Z,100.00
2022-11-16T07:30:28.060Z,100.00
2022-11-16T07:33:19.442Z,100.00
2022-11-16T07:36:18.121Z,100.00
2022-11-16T07:38:18.371Z,100.00
2022-11-16T07:40:17.801Z,100.00
2022-11-16T07:42:42.189Z,100.00
2022-11-16T07:46:21.343Z,100.00
2022-11-16T07:48:17.525Z,100.00
2022-11-16T07:50:38.764Z,100.00
2022-11-16T07:53:28.495Z,100.00
2022-11-16T07:55:32.127Z,100.00
2022-11-16T07:57:32.317Z,100.00
2022-11-16T08:00:21.696Z,100.00
2022-11-16T08:02:53.113Z,100.00
2022-11-16T08:05:34.600Z,100.00
2022-11-16T08:08:04.448Z,100.00
2022-11-16T08:10:12.823Z,100.00
2022-11-16T08:12:19.314Z,100.00
2022-11-16T08:15:02.642Z,100.00
2022-11-16T08:17:50.783Z,100.00
2022-11-16T08:20:26.735Z,100.00
2022-11-16T08:22:29.207Z,100.00
2022-11-16T08:25:13.728Z,99.62
2022-11-16T08:28:07.603Z,97.71
2022-11-16T08:30:10.294Z,96.99
2022-11-16T08:32:10.994Z,96.17
2022-11-16T08:34:51.745Z,94.90
2022-11-16T08:40:51.728Z,93.94
2022-11-16T08:43:40.824Z,92.63
2022-11-16T08:46:46.640Z,91.71
2022-11-16T08:49:13.263Z,89.02
2022-11-16T08:51:52.197Z,88.64
2022-11-16T08:54:26.720Z,89.38
2022-11-16T08:56:30.299Z,89.44
2022-11-16T08:58:43.494Z,88.87
2022-11-16T09:01:00.502Z,89.23
2022-11-16T09:04:04.611Z,88.37
2022-11-16T09:12:29.365Z,85.59
2022-11-16T09:14:36.949Z,80.80
2022-11-16T09:17:58.032Z,79.54
2022-11-16T09:21:00.857Z,78.47
2022-11-16T09:23:23.846Z,78.67
2022-11-16T09:26:01.179Z,74.23
2022-11-16T09:28:53.599Z,74.76
2022-11-16T09:31:42.986Z,72.07
2022-11-16T09:33:50.585Z,71.82
2022-11-16T09:35:49.978Z,70.61
2022-11-16T09:38:46.843Z,69.40
2022-11-16T09:41:42.344Z,64.32
2022-11-16T09:44:40.943Z,62.65
2022-11-16T09:47:34.285Z,61.78
2022-11-16T09:49:44.022Z,59.02
2022-11-16T09:51:46.491Z,58.36
2022-11-16T09:54:59.820Z,59.18
2022-11-16T09:57:50.624Z,57.04
2022-11-16T10:00:02.394Z,54.26
2022-11-16T10:02:22.989Z,54.05
2022-11-16T10:04:58.656Z,57.61
2022-11-16T10:07:28.047Z,65.05
2022-11-16T10:09:28.689Z,71.23
2022-11-16T10:11:41.645Z,74.72
2022-11-16T10:13:49.473Z,76.82
2022-11-16T10:16:17.960Z,76.69
2022-11-16T10:19:11.680Z,75.46
2022-11-16T10:21:36.147Z,69.71
2022-11-16T10:23:50.191Z,67.61
2022-11-16T10:26:30.720Z,65.26
2022-11-16T10:28:58.103Z,62.02
2022-11-16T10:31:48.364Z,58.94
2022-11-16T10:34:30.234Z,57.46
2022-11-16T10:36:35.919Z,55.42
2022-11-16T10:39:17.260Z,54.27
2022-11-16T10:42:13.627Z,54.94
2022-11-16T10:44:21.217Z,54.22
2022-11-16T10:47:19.352Z,54.10
2022-11-16T10:49:54.840Z,55.21
2022-11-16T10:51:56.282Z,60.02
2022-11-16T10:53:55.878Z,64.26
2022-11-16T10:56:11.879Z,66.99
2022-11-16T10:58:43.301Z,70.65
2022-11-16T11:01:40.779Z,73.38
2022-11-16T11:03:39.058Z,76.51
2022-11-16T11:06:18.239Z,77.95
2022-11-16T11:08:57.964Z,77.56
2022-11-16T11:11:22.757Z,77.02
2022-11-16T11:13:51.308Z,77.11
2022-11-16T11:16:32.850Z,76.59
2022-11-16T11:18:32.515Z,75.13
2022-11-16T11:20:44.814Z,73.93
2022-11-16T11:22:46.089Z,72.57
2022-11-16T11:24:48.797Z,72.69
2022-11-16T11:26:54.191Z,73.30
2022-11-16T11:28:52.590Z,73.73
2022-11-16T11:30:57.444Z,74.58
2022-11-16T11:32:55.761Z,75.22
2022-11-16T11:34:57.060Z,74.81
2022-11-16T11:36:58.756Z,75.09
2022-11-16T11:39:03.374Z,73.74
2022-11-16T11:41:05.307Z,73.48
2022-11-16T11:43:06.403Z,73.89
2022-11-16T11:45:10.269Z,74.92
2022-11-16T11:48:00.385Z,75.98
2022-11-16T11:50:07.802Z,77.29
2022-11-16T11:52:13.080Z,77.77
2022-11-16T11:54:19.281Z,77.69
2022-11-16T11:56:18.729Z,78.72
2022-11-16T11:58:19.664Z,79.43
2022-11-16T12:00:19.222Z,78.99
2022-11-16T12:02:35.009Z,79.08
2022-11-16T12:05:01.395Z,78.97
2022-11-16T12:07:08.077Z,78.87
2022-11-16T12:09:26.851Z,77.88
2022-11-16T12:11:34.389Z,78.36
2022-11-16T12:13:51.219Z,78.42
2022-11-16T12:16:06.510Z,77.74
2022-11-16T12:18:18.382Z,77.72
2022-11-16T12:20:34.585Z,78.28
2022-11-16T12:22:54.054Z,79.20
2022-11-16T12:25:08.331Z,79.92
2022-11-16T12:27:20.167Z,80.14
2022-11-16T12:29:27.269Z,80.21
2022-11-16T12:31:52.158Z,80.08
2022-11-16T12:33:59.611Z,80.07
2022-11-16T12:36:05.752Z,80.81
2022-11-16T12:38:23.125Z,80.92
2022-11-16T12:40:36.968Z,80.83
2022-11-16T12:42:48.278Z,80.46
2022-11-16T12:45:17.021Z,80.48
2022-11-16T12:47:25.640Z,80.77
2022-11-16T12:49:49.066Z,79.92
2022-11-16T12:52:01.137Z,79.47
2022-11-16T12:54:30.115Z,78.80
2022-11-16T12:56:39.731Z,78.54
2022-11-16T12:59:01.100Z,78.53
2022-11-16T13:01:12.243Z,78.46
2022-11-16T13:03:19.723Z,78.98
2022-11-16T13:05:22.456Z,79.51
2022-11-16T13:07:26.790Z,79.50
2022-11-16T13:09:31.481Z,79.49
2022-11-16T13:11:33.091Z,79.63
2022-11-16T13:13:38.599Z,79.34
2022-11-16T13:15:40.913Z,79.37
2022-11-16T13:17:41.097Z,79.28
2022-11-16T13:19:43.289Z,79.71
2022-11-16T13:21:49.021Z,79.52
2022-11-16T13:23:56.840Z,79.65
2022-11-16T13:26:04.006Z,79.58
2022-11-16T13:28:13.304Z,80.56
2022-11-16T13:30:20.543Z,80.92
2022-11-16T13:32:25.289Z,81.37
2022-11-16T13:34:27.218Z,81.37
2022-11-16T13:36:45.503Z,81.37
2022-11-16T13:38:54.335Z,80.95
2022-11-16T13:40:52.666Z,80.78
2022-11-16T13:43:06.820Z,80.69
2022-11-16T13:45:10.033Z,80.49
2022-11-16T13:47:22.075Z,80.66
2022-11-16T13:49:23.936Z,80.61
2022-11-16T13:51:24.837Z,80.49
2022-11-16T13:54:25.056Z,80.73
2022-11-16T13:55:57.450Z,80.29
2022-11-16T13:57:57.970Z,80.63
2022-11-16T14:00:11.529Z,81.69
2022-11-16T14:02:31.603Z,81.85
2022-11-16T14:04:57.869Z,82.18
2022-11-16T14:07:01.029Z,82.32
2022-11-16T14:09:00.565Z,82.42
2022-11-16T14:11:02.888Z,82.10
2022-11-16T14:13:01.570Z,81.93
2022-11-16T14:15:14.640Z,82.37
2022-11-16T14:17:53.712Z,81.84
2022-11-16T14:19:57.706Z,81.67
2022-11-16T14:22:05.567Z,81.34
2022-11-16T14:24:22.411Z,81.91
2022-11-16T14:26:26.672Z,82.00
2022-11-16T14:28:43.861Z,82.80
2022-11-16T14:30:56.552Z,83.62
2022-11-16T14:32:57.498Z,83.79
2022-11-16T14:34:58.154Z,84.22
2022-11-16T14:36:57.232Z,84.58
2022-11-16T14:38:56.046Z,85.18
2022-11-16T14:40:59.876Z,85.63
2022-11-16T14:43:20.223Z,85.83
2022-11-16T14:45:25.073Z,86.29
2022-11-16T14:47:28.746Z,86.83
2022-11-16T14:49:37.273Z,87.29
2022-11-16T14:51:39.315Z,87.02
2022-11-16T14:53:41.027Z,87.07
2022-11-16T14:55:45.358Z,87.48
2022-11-16T14:57:43.388Z,87.71
2022-11-16T14:59:41.700Z,88.29
2022-11-16T15:01:40.999Z,89.00
2022-11-16T15:03:44.346Z,89.18
2022-11-16T15:05:42.774Z,89.81
2022-11-16T15:07:45.061Z,90.22
2022-11-16T15:09:48.460Z,89.99
2022-11-16T15:12:07.327Z,89.58
2022-11-16T15:14:05.782Z,89.26
2022-11-16T15:16:12.491Z,89.04
2022-11-16T15:18:14.993Z,89.49
2022-11-16T15:20:20.799Z,90.00
2022-11-16T15:22:22.544Z,90.15
2022-11-16T15:24:30.633Z,90.58
2022-11-16T15:26:30.029Z,90.84
2022-11-16T15:28:55.298Z,90.63
2022-11-16T15:30:54.644Z,90.57
2022-11-16T15:32:54.385Z,90.10
2022-11-16T15:34:55.397Z,90.19
2022-11-16T15:36:58.023Z,90.88
2022-11-16T15:38:58.709Z,90.67
2022-11-16T15:41:06.487Z,91.64
2022-11-16T15:43:13.368Z,92.47
2022-11-16T15:45:22.427Z,92.77
2022-11-16T15:47:21.637Z,93.61
2022-11-16T15:49:28.824Z,94.03
2022-11-16T15:51:32.330Z,92.78
2022-11-16T15:53:40.622Z,93.69
2022-11-16T15:55:43.385Z,93.02
2022-11-16T15:57:46.629Z,93.39
2022-11-16T15:59:50.580Z,92.98
2022-11-16T16:01:52.255Z,93.65
2022-11-16T16:03:58.770Z,94.08
2022-11-16T16:05:57.319Z,95.13
2022-11-16T16:07:58.181Z,96.49
2022-11-16T16:10:13.826Z,97.20
2022-11-16T16:12:20.007Z,97.65
2022-11-16T16:14:27.503Z,97.90
2022-11-16T16:16:39.606Z,99.11
2022-11-16T16:18:54.903Z,99.41
2022-11-16T16:20:55.372Z,99.01
2022-11-16T16:23:16.465Z,99.40
2022-11-16T16:25:33.318Z,100.00
2022-11-16T16:27:32.410Z,100.00
2022-11-16T16:29:49.821Z,100.00
2022-11-16T16:32:07.057Z,100.00
2022-11-16T16:34:12.705Z,100.00
2022-11-16T16:36:13.788Z,100.00
2022-11-16T16:39:08.497Z,100.00
2022-11-16T16:44:00.733Z,100.00
2022-11-16T16:46:02.302Z,100.00
2022-11-16T16:48:00.714Z,100.00
2022-11-16T16:49:58.905Z,100.00
2022-11-16T16:52:00.423Z,100.00
2022-11-16T16:54:14.617Z,100.00
2022-11-16T16:56:19.755Z,100.00
2022-11-16T16:58:18.581Z,100.00
2022-11-16T17:00:18.733Z,100.00
2022-11-16T17:02:17.457Z,100.00
2022-11-16T17:04:15.994Z,100.00
2022-11-16T17:08:53.464Z,100.00
2022-11-16T17:11:05.846Z,100.00
2022-11-16T17:13:21.165Z,100.00
2022-11-16T17:15:27.405Z,100.00
2022-11-16T17:18:06.714Z,100.00
2022-11-16T17:20:50.319Z,100.00
2022-11-16T17:22:57.592Z,100.00
2022-11-16T17:24:58.873Z,100.00
2022-11-16T17:26:59.540Z,100.00
2022-11-16T17:29:01.843Z,100.00
2022-11-16T17:31:11.677Z,100.00
2022-11-16T17:33:10.195Z,100.00
2022-11-16T17:35:15.391Z,100.00
2022-11-16T17:37:22.687Z,100.00
2022-11-16T17:39:26.223Z,100.00
2022-11-16T17:41:25.681Z,100.00
2022-11-16T17:43:36.851Z,100.00
2022-11-16T17:45:36.645Z,100.00
2022-11-16T17:47:34.890Z,100.00
2022-11-16T17:49:36.321Z,100.00
2022-11-16T17:51:43.684Z,100.00
2022-11-16T17:53:44.315Z,100.00
2022-11-16T17:55:46.276Z,100.00
2022-11-16T17:57:44.617Z,100.00
2022-11-16T17:59:43.008Z,100.00
2022-11-16T18:01:45.747Z,100.00
2022-11-16T18:03:46.244Z,100.00
2022-11-16T18:05:45.323Z,100.00
2022-11-16T18:07:43.777Z,100.00
2022-11-16T18:09:41.975Z,100.00
2022-11-16T18:11:40.314Z,100.00
2022-11-16T18:13:38.770Z,100.00
2022-11-16T18:15:42.469Z,100.00
2022-11-16T18:17:42.321Z,100.00
2022-11-16T18:19:43.046Z,100.00
2022-11-16T18:21:42.654Z,100.00
2022-11-16T18:23:41.070Z,100.00
2022-11-16T18:25:41.618Z,100.00
2022-11-16T18:27:42.299Z,100.00
2022-11-16T18:29:41.237Z,100.00
2022-11-16T18:31:40.205Z,100.00
2022-11-16T18:33:40.540Z,100.00
2022-11-16T18:35:39.135Z,100.00
2022-11-16T18:37:40.569Z,100.00
2022-11-16T18:39:38.799Z,100.00
2022-11-16T18:44:34.418Z,100.00
2022-11-16T18:46:44.752Z,100.00
2022-11-16T18:48:47.403Z,100.00
2022-11-16T18:50:45.779Z,100.00
2022-11-16T18:52:45.410Z,100.00
2022-11-16T18:54:43.549Z,100.00
2022-11-16T18:56:44.846Z,100.00
2022-11-16T18:58:52.425Z,100.00
2022-11-16T19:01:05.125Z,100.00
2022-11-16T19:03:08.466Z,100.00
2022-11-16T19:05:11.020Z,100.00
2022-11-16T19:07:09.371Z,100.00
2022-11-16T19:09:09.699Z,100.00
2022-11-16T19:11:09.720Z,100.00
2022-11-16T19:13:08.121Z,100.00
2022-11-16T19:15:08.563Z,100.00
2022-11-16T19:17:06.799Z,100.00
2022-11-16T19:19:05.654Z,100.00
2022-11-16T19:21:06.623Z,100.00
2022-11-16T19:23:05.033Z,100.00
2022-11-16T19:25:05.991Z,100.00
2022-11-16T19:27:05.294Z,100.00
2022-11-16T19:29:05.800Z,100.00
2022-11-16T19:31:09.173Z,100.00
2022-11-16T19:33:09.326Z,100.00
2022-11-16T19:35:10.985Z,100.00
2022-11-16T19:37:11.074Z,100.00
2022-11-16T19:39:10.478Z,100.00
2022-11-16T19:41:11.400Z,100.00
2022-11-16T19:43:09.695Z,100.00
2022-11-16T19:45:09.062Z,100.00
2022-11-16T19:47:07.564Z,100.00
2022-11-16T19:49:19.610Z,100.00
2022-11-16T19:51:20.158Z,100.00
2022-11-16T19:53:23.877Z,100.00
2022-11-16T19:55:28.638Z,100.00
2022-11-16T19:57:40.236Z,100.00
2022-11-16T19:59:38.620Z,100.00
2022-11-16T20:01:37.066Z,100.00
2022-11-16T20:03:38.533Z,100.00
2022-11-16T20:05:37.076Z,100.00
2022-11-16T20:07:38.804Z,100.00
2022-11-16T20:09:41.774Z,100.00
2022-11-16T20:11:41.731Z,100.00
2022-11-16T20:13:40.221Z,100.00
2022-11-16T20:15:38.449Z,100.00
2022-11-16T20:17:39.695Z,100.00
2022-11-16T20:19:42.103Z,100.00
2022-11-16T20:21:45.005Z,100.00
2022-11-16T20:23:45.254Z,100.00
2022-11-16T20:25:45.027Z,100.00
2022-11-16T20:27:43.171Z,100.00
2022-11-16T20:29:41.406Z,100.00
2022-11-16T20:31:45.498Z,100.00
2022-11-16T20:33:50.867Z,100.00
2022-11-16T20:35:49.596Z,100.00
2022-11-16T20:37:49.877Z,100.00
2022-11-16T20:39:54.490Z,100.00
2022-11-16T20:41:56.558Z,100.00
2022-11-16T20:44:00.227Z,100.00
2022-11-16T20:46:23.279Z,100.00
2022-11-16T20:48:29.625Z,100.00
2022-11-16T20:50:53.132Z,100.00
2022-11-16T20:53:01.997Z,100.00
2022-11-16T20:55:02.201Z,100.00
2022-11-16T20:57:02.435Z,100.00
2022-11-16T20:59:06.551Z,100.00
2022-11-16T21:01:13.028Z,100.00
2022-11-16T21:03:12.948Z,100.00
2022-11-16T21:05:11.076Z,100.00
2022-11-16T21:07:09.592Z,100.00
2022-11-16T21:09:12.860Z,100.00
2022-11-16T21:11:13.137Z,100.00
2022-11-16T21:13:32.880Z,100.00
2022-11-16T21:15:32.111Z,100.00
2022-11-16T21:17:39.210Z,100.00
2022-11-16T21:19:37.467Z,100.00
2022-11-16T21:21:36.135Z,100.00
2022-11-16T21:23:36.481Z,100.00
2022-11-16T21:25:35.155Z,100.00
2022-11-16T21:27:35.223Z,100.00
2022-11-16T21:29:34.742Z,100.00
2022-11-16T21:31:36.884Z,100.00
2022-11-16T21:33:35.633Z,100.00
2022-11-16T21:35:34.330Z,100.00
2022-11-16T21:37:32.727Z,100.00
2022-11-16T21:39:34.206Z,100.00
2022-11-16T21:41:32.745Z,100.00
2022-11-16T21:43:31.904Z,100.00
2022-11-16T21:45:31.642Z,100.00
2022-11-16T21:47:30.365Z,100.00
2022-11-16T21:49:28.610Z,100.00
2022-11-16T21:51:27.964Z,100.00
2022-11-16T21:53:26.219Z,100.00
2022-11-16T21:55:24.709Z,100.00
2022-11-16T21:57:23.327Z,100.00
2022-11-16T21:59:21.711Z,100.00
2022-11-16T22:01:22.622Z,100.00
2022-11-16T22:03:21.088Z,100.00
2022-11-16T22:05:42.639Z,100.00
2022-11-16T22:07:42.844Z,100.00
2022-11-16T22:09:41.354Z,100.00
2022-11-16T22:11:39.700Z,100.00
2022-11-16T22:13:38.649Z,100.00
2022-11-16T22:15:36.974Z,100.00
2022-11-16T22:17:37.955Z,100.00
2022-11-16T22:19:36.300Z,100.00
2022-11-16T22:21:36.373Z,100.00
2022-11-16T22:23:35.874Z,100.00
2022-11-16T22:25:34.564Z,100.00
2022-11-16T22:27:58.393Z,100.00
2022-11-16T22:29:54.465Z,100.00
2022-11-16T22:31:52.595Z,100.00
2022-11-16T22:33:54.734Z,100.00
2022-11-16T22:35:57.030Z,100.00
2022-11-16T22:37:56.058Z,100.00
2022-11-16T22:39:54.374Z,100.00
2022-11-16T22:41:52.622Z,100.00
2022-11-16T22:43:51.725Z,100.00
2022-11-16T22:45:50.127Z,100.00
2022-11-16T22:47:52.091Z,100.00
2022-11-16T22:49:54.949Z,100.00
2022-11-16T22:51:58.627Z,100.00
2022-11-16T22:53:58.679Z,100.00
2022-11-16T22:55:56.903Z,100.00
2022-11-16T22:57:55.016Z,100.00
2022-11-16T22:59:53.461Z,100.00
2022-11-16T23:01:51.720Z,100.00
2022-11-16T23:03:51.238Z,100.00
2022-11-16T23:05:50.875Z,100.00
2022-11-16T23:07:49.082Z,100.00
2022-11-16T23:09:47.111Z,100.00
2022-11-16T23:12:14.646Z,100.00
2022-11-16T23:14:34.798Z,100.00
2022-11-16T23:16:33.493Z,100.00
2022-11-16T23:18:31.611Z,100.00
2022-11-16T23:20:55.760Z,100.00
2022-11-16T23:23:15.052Z,100.00
2022-11-16T23:25:31.493Z,100.00
2022-11-16T23:27:36.348Z,100.00
2022-11-16T23:29:34.782Z,100.00
2022-11-16T23:31:33.100Z,100.00
2022-11-16T23:33:45.053Z,100.00
2022-11-16T23:35:43.368Z,100.00
2022-11-16T23:37:52.201Z,100.00
2022-11-16T23:39:51.995Z,100.00
2022-11-16T23:42:09.567Z,100.00
2022-11-16T23:44:07.808Z,100.00
2022-11-16T23:46:06.362Z,100.00
2022-11-16T23:48:05.365Z,100.00
2022-11-16T23:50:03.644Z,100.00
2022-11-16T23:52:02.177Z,100.00
2022-11-16T23:54:00.384Z,100.00
2022-11-16T23:56:06.100Z,100.00
2022-11-16T23:58:04.668Z,100.00
